sensor_id;sensor_type;location;lat;lon;timestamp;P1;durP1;ratioP1;P2;durP2;ratioP2
151;SDS011;68;48.792;9.164;2023-10-13T00:01:20;33.00;;;11.33;;
151;SDS011;68;48.792;9.164;2023-10-13T00:03:47;33.30;;;11.53;;
151;SDS011;68;48.792;9.164;2023-10-13T00:06:13;34.50;;;10.57;;
151;SDS011;68;48.792;9.164;2023-10-13T00:08:40;31.73;;;9.93;;
151;SDS011;68;48.792;9.164;2023-10-13T00:11:11;31.10;;;10.50;;
151;SDS011;68;48.792;9.164;2023-10-13T00:13:39;33.83;;;10.20;;
151;SDS011;68;48.792;9.164;2023-10-13T00:16:15;32.90;;;10.10;;
151;SDS011;68;48.792;9.164;2023-10-13T00:18:46;35.23;;;10.10;;
151;SDS011;68;48.792;9.164;2023-10-13T00:21:14;33.80;;;10.80;;
151;SDS011;68;48.792;9.164;2023-10-13T00:23:45;33.30;;;10.30;;
151;SDS011;68;48.792;9.164;2023-10-13T00:26:18;34.47;;;10.23;;
151;SDS011;68;48.792;9.164;2023-10-13T00:28:50;38.23;;;12.50;;
151;SDS011;68;48.792;9.164;2023-10-13T00:31:24;33.50;;;10.60;;
151;SDS011;68;48.792;9.164;2023-10-13T00:33:54;34.13;;;9.70;;
151;SDS011;68;48.792;9.164;2023-10-13T00:36:26;31.33;;;11.30;;
151;SDS011;68;48.792;9.164;2023-10-13T00:38:53;33.63;;;10.13;;
151;SDS011;68;48.792;9.164;2023-10-13T00:41:21;34.90;;;11.00;;
151;SDS011;68;48.792;9.164;2023-10-13T00:44:09;36.60;;;10.07;;
151;SDS011;68;48.792;9.164;2023-10-13T00:46:35;32.37;;;10.67;;
151;SDS011;68;48.792;9.164;2023-10-13T00:49:09;39.03;;;10.20;;
151;SDS011;68;48.792;9.164;2023-10-13T00:51:40;38.73;;;11.30;;
151;SDS011;68;48.792;9.164;2023-10-13T00:54:12;37.60;;;10.10;;
151;SDS011;68;48.792;9.164;2023-10-13T00:56:42;34.67;;;12.47;;
151;SDS011;68;48.792;9.164;2023-10-13T00:59:13;35.27;;;10.60;;
151;SDS011;68;48.792;9.164;2023-10-13T01:01:41;35.60;;;11.60;;
151;SDS011;68;48.792;9.164;2023-10-13T01:04:08;36.30;;;10.77;;
151;SDS011;68;48.792;9.164;2023-10-13T01:06:37;36.30;;;10.53;;
151;SDS011;68;48.792;9.164;2023-10-13T01:09:04;44.77;;;11.97;;
151;SDS011;68;48.792;9.164;2023-10-13T01:11:41;33.37;;;10.70;;
151;SDS011;68;48.792;9.164;2023-10-13T01:14:09;33.57;;;10.80;;
151;SDS011;68;48.792;9.164;2023-10-13T01:16:38;33.27;;;10.67;;
151;SDS011;68;48.792;9.164;2023-10-13T01:19:05;36.50;;;11.67;;
151;SDS011;68;48.792;9.164;2023-10-13T01:21:32;38.33;;;10.80;;
151;SDS011;68;48.792;9.164;2023-10-13T01:24:00;39.80;;;12.00;;
151;SDS011;68;48.792;9.164;2023-10-13T01:26:32;38.30;;;10.40;;
151;SDS011;68;48.792;9.164;2023-10-13T01:29:03;33.50;;;11.80;;
151;SDS011;68;48.792;9.164;2023-10-13T01:31:37;33.23;;;10.83;;
151;SDS011;68;48.792;9.164;2023-10-13T01:34:02;37.70;;;10.60;;
151;SDS011;68;48.792;9.164;2023-10-13T01:36:29;37.57;;;11.00;;
151;SDS011;68;48.792;9.164;2023-10-13T01:39:02;35.47;;;11.60;;
151;SDS011;68;48.792;9.164;2023-10-13T01:41:29;37.77;;;11.70;;
151;SDS011;68;48.792;9.164;2023-10-13T01:43:56;38.30;;;11.30;;
151;SDS011;68;48.792;9.164;2023-10-13T01:46:23;34.73;;;10.70;;
151;SDS011;68;48.792;9.164;2023-10-13T01:48:49;34.10;;;11.90;;
151;SDS011;68;48.792;9.164;2023-10-13T01:51:19;41.57;;;11.80;;
151;SDS011;68;48.792;9.164;2023-10-13T01:53:48;33.90;;;11.20;;
151;SDS011;68;48.792;9.164;2023-10-13T01:56:22;40.77;;;10.67;;
151;SDS011;68;48.792;9.164;2023-10-13T01:58:48;40.10;;;12.20;;
151;SDS011;68;48.792;9.164;2023-10-13T02:01:17;39.37;;;10.00;;
151;SDS011;68;48.792;9.164;2023-10-13T02:03:51;33.73;;;10.97;;
151;SDS011;68;48.792;9.164;2023-10-13T02:06:26;33.50;;;11.30;;
151;SDS011;68;48.792;9.164;2023-10-13T02:08:57;34.30;;;11.73;;
151;SDS011;68;48.792;9.164;2023-10-13T02:11:31;36.07;;;11.27;;
151;SDS011;68;48.792;9.164;2023-10-13T02:13:57;33.47;;;10.77;;
151;SDS011;68;48.792;9.164;2023-10-13T02:16:25;31.87;;;10.17;;
151;SDS011;68;48.792;9.164;2023-10-13T02:18:51;36.10;;;11.63;;
151;SDS011;68;48.792;9.164;2023-10-13T02:21:18;37.37;;;11.60;;
151;SDS011;68;48.792;9.164;2023-10-13T02:23:43;37.20;;;10.83;;
151;SDS011;68;48.792;9.164;2023-10-13T02:26:11;36.87;;;11.40;;
151;SDS011;68;48.792;9.164;2023-10-13T02:28:41;33.17;;;10.67;;
151;SDS011;68;48.792;9.164;2023-10-13T02:31:14;39.77;;;11.43;;
151;SDS011;68;48.792;9.164;2023-10-13T02:33:42;44.00;;;11.70;;
151;SDS011;68;48.792;9.164;2023-10-13T02:36:10;36.57;;;11.20;;
151;SDS011;68;48.792;9.164;2023-10-13T02:38:37;38.90;;;10.50;;
151;SDS011;68;48.792;9.164;2023-10-13T02:41:11;37.60;;;10.70;;
151;SDS011;68;48.792;9.164;2023-10-13T02:43:44;33.53;;;10.50;;
151;SDS011;68;48.792;9.164;2023-10-13T02:46:11;33.90;;;11.27;;
151;SDS011;68;48.792;9.164;2023-10-13T02:48:41;34.20;;;11.97;;
151;SDS011;68;48.792;9.164;2023-10-13T02:51:07;39.57;;;12.17;;
151;SDS011;68;48.792;9.164;2023-10-13T02:53:41;34.07;;;10.50;;
151;SDS011;68;48.792;9.164;2023-10-13T02:56:11;39.07;;;10.53;;
151;SDS011;68;48.792;9.164;2023-10-13T02:58:39;42.57;;;11.20;;
151;SDS011;68;48.792;9.164;2023-10-13T03:01:10;32.00;;;10.40;;
151;SDS011;68;48.792;9.164;2023-10-13T03:03:46;33.60;;;11.10;;
151;SDS011;68;48.792;9.164;2023-10-13T03:06:15;32.13;;;11.17;;
151;SDS011;68;48.792;9.164;2023-10-13T03:08:43;40.50;;;11.90;;
151;SDS011;68;48.792;9.164;2023-10-13T03:11:10;32.07;;;10.37;;
151;SDS011;68;48.792;9.164;2023-10-13T03:13:36;39.67;;;13.27;;
151;SDS011;68;48.792;9.164;2023-10-13T03:16:13;32.53;;;11.20;;
151;SDS011;68;48.792;9.164;2023-10-13T03:18:41;37.20;;;10.93;;
151;SDS011;68;48.792;9.164;2023-10-13T03:21:16;35.60;;;11.67;;
151;SDS011;68;48.792;9.164;2023-10-13T03:23:53;38.00;;;11.93;;
151;SDS011;68;48.792;9.164;2023-10-13T03:26:20;35.10;;;11.30;;
151;SDS011;68;48.792;9.164;2023-10-13T03:28:46;40.23;;;12.30;;
151;SDS011;68;48.792;9.164;2023-10-13T03:31:18;43.80;;;11.23;;
151;SDS011;68;48.792;9.164;2023-10-13T03:33:50;34.37;;;12.90;;
151;SDS011;68;48.792;9.164;2023-10-13T03:36:22;40.90;;;12.57;;
151;SDS011;68;48.792;9.164;2023-10-13T03:39:20;36.70;;;12.30;;
151;SDS011;68;48.792;9.164;2023-10-13T03:41:52;36.13;;;11.37;;
151;SDS011;68;48.792;9.164;2023-10-13T03:44:19;38.20;;;11.03;;
151;SDS011;68;48.792;9.164;2023-10-13T03:46:49;35.00;;;11.03;;
151;SDS011;68;48.792;9.164;2023-10-13T03:49:19;35.00;;;11.33;;
151;SDS011;68;48.792;9.164;2023-10-13T03:51:47;35.90;;;11.20;;
151;SDS011;68;48.792;9.164;2023-10-13T03:54:14;36.90;;;11.57;;
151;SDS011;68;48.792;9.164;2023-10-13T03:56:43;35.63;;;12.53;;
151;SDS011;68;48.792;9.164;2023-10-13T03:59:10;36.77;;;12.23;;
151;SDS011;68;48.792;9.164;2023-10-13T04:01:44;38.20;;;12.67;;
151;SDS011;68;48.792;9.164;2023-10-13T04:04:24;33.33;;;12.13;;
151;SDS011;68;48.792;9.164;2023-10-13T04:07:02;34.50;;;11.37;;
151;SDS011;68;48.792;9.164;2023-10-13T04:09:55;34.27;;;12.00;;
151;SDS011;68;48.792;9.164;2023-10-13T04:12:51;35.60;;;13.40;;
151;SDS011;68;48.792;9.164;2023-10-13T04:15:35;36.37;;;11.87;;
151;SDS011;68;48.792;9.164;2023-10-13T04:18:26;33.90;;;11.30;;
151;SDS011;68;48.792;9.164;2023-10-13T04:21:13;33.63;;;12.13;;
151;SDS011;68;48.792;9.164;2023-10-13T04:24:05;32.07;;;10.83;;
151;SDS011;68;48.792;9.164;2023-10-13T04:26:48;35.20;;;12.67;;
151;SDS011;68;48.792;9.164;2023-10-13T04:29:44;33.93;;;13.03;;
151;SDS011;68;48.792;9.164;2023-10-13T04:32:28;35.17;;;12.07;;
151;SDS011;68;48.792;9.164;2023-10-13T04:34:54;38.67;;;12.00;;
151;SDS011;68;48.792;9.164;2023-10-13T04:37:26;36.67;;;11.77;;
151;SDS011;68;48.792;9.164;2023-10-13T04:39:58;38.07;;;12.40;;
151;SDS011;68;48.792;9.164;2023-10-13T04:42:33;36.40;;;11.60;;
151;SDS011;68;48.792;9.164;2023-10-13T04:45:16;41.73;;;13.27;;
151;SDS011;68;48.792;9.164;2023-10-13T04:48:04;40.60;;;11.57;;
151;SDS011;68;48.792;9.164;2023-10-13T04:50:54;33.80;;;11.40;;
151;SDS011;68;48.792;9.164;2023-10-13T04:53:47;39.03;;;11.70;;
151;SDS011;68;48.792;9.164;2023-10-13T04:56:37;38.10;;;12.60;;
151;SDS011;68;48.792;9.164;2023-10-13T04:59:30;34.07;;;12.17;;
151;SDS011;68;48.792;9.164;2023-10-13T05:02:23;33.67;;;11.27;;
151;SDS011;68;48.792;9.164;2023-10-13T05:05:13;37.00;;;12.17;;
151;SDS011;68;48.792;9.164;2023-10-13T05:07:58;33.93;;;12.80;;
151;SDS011;68;48.792;9.164;2023-10-13T05:10:42;43.20;;;13.00;;
151;SDS011;68;48.792;9.164;2023-10-13T05:13:26;38.83;;;13.30;;
151;SDS011;68;48.792;9.164;2023-10-13T05:16:12;35.13;;;11.80;;
151;SDS011;68;48.792;9.164;2023-10-13T05:18:56;33.60;;;12.57;;
151;SDS011;68;48.792;9.164;2023-10-13T05:21:40;35.77;;;12.10;;
151;SDS011;68;48.792;9.164;2023-10-13T05:24:24;48.87;;;12.90;;
151;SDS011;68;48.792;9.164;2023-10-13T05:27:08;32.27;;;12.20;;
151;SDS011;68;48.792;9.164;2023-10-13T05:29:53;35.80;;;11.87;;
151;SDS011;68;48.792;9.164;2023-10-13T05:32:39;36.70;;;12.37;;
151;SDS011;68;48.792;9.164;2023-10-13T05:35:23;33.80;;;11.40;;
151;SDS011;68;48.792;9.164;2023-10-13T05:38:08;33.47;;;12.00;;
151;SDS011;68;48.792;9.164;2023-10-13T05:40:52;44.47;;;12.50;;
151;SDS011;68;48.792;9.164;2023-10-13T05:43:37;34.50;;;12.40;;
151;SDS011;68;48.792;9.164;2023-10-13T05:46:21;36.20;;;12.07;;
151;SDS011;68;48.792;9.164;2023-10-13T05:49:15;35.00;;;11.90;;
151;SDS011;68;48.792;9.164;2023-10-13T05:51:59;35.57;;;12.73;;
151;SDS011;68;48.792;9.164;2023-10-13T05:54:33;38.70;;;13.27;;
151;SDS011;68;48.792;9.164;2023-10-13T05:57:17;38.10;;;14.40;;
151;SDS011;68;48.792;9.164;2023-10-13T06:00:00;38.80;;;12.90;;
151;SDS011;68;48.792;9.164;2023-10-13T06:02:44;38.03;;;13.07;;
151;SDS011;68;48.792;9.164;2023-10-13T06:05:30;32.70;;;12.70;;
151;SDS011;68;48.792;9.164;2023-10-13T06:08:17;34.97;;;11.17;;
151;SDS011;68;48.792;9.164;2023-10-13T06:11:01;38.03;;;12.60;;
151;SDS011;68;48.792;9.164;2023-10-13T06:13:46;33.80;;;12.20;;
151;SDS011;68;48.792;9.164;2023-10-13T06:16:31;40.93;;;11.47;;
151;SDS011;68;48.792;9.164;2023-10-13T06:19:15;33.27;;;12.50;;
151;SDS011;68;48.792;9.164;2023-10-13T06:22:00;42.97;;;12.33;;
151;SDS011;68;48.792;9.164;2023-10-13T06:24:45;36.70;;;12.37;;
151;SDS011;68;48.792;9.164;2023-10-13T06:27:29;44.23;;;13.10;;
151;SDS011;68;48.792;9.164;2023-10-13T06:30:10;35.07;;;13.53;;
151;SDS011;68;48.792;9.164;2023-10-13T06:32:38;44.63;;;13.40;;
151;SDS011;68;48.792;9.164;2023-10-13T06:35:06;35.70;;;12.57;;
151;SDS011;68;48.792;9.164;2023-10-13T06:37:35;40.43;;;13.90;;
151;SDS011;68;48.792;9.164;2023-10-13T06:40:09;39.97;;;12.33;;
151;SDS011;68;48.792;9.164;2023-10-13T06:42:47;35.87;;;12.10;;
151;SDS011;68;48.792;9.164;2023-10-13T06:45:14;42.80;;;11.27;;
151;SDS011;68;48.792;9.164;2023-10-13T06:47:44;42.93;;;12.67;;
151;SDS011;68;48.792;9.164;2023-10-13T06:50:10;33.00;;;12.40;;
151;SDS011;68;48.792;9.164;2023-10-13T06:52:42;42.67;;;12.47;;
151;SDS011;68;48.792;9.164;2023-10-13T06:55:09;40.03;;;13.00;;
151;SDS011;68;48.792;9.164;2023-10-13T06:57:42;42.63;;;12.20;;
151;SDS011;68;48.792;9.164;2023-10-13T07:00:09;41.97;;;13.30;;
151;SDS011;68;48.792;9.164;2023-10-13T07:02:44;35.57;;;12.27;;
151;SDS011;68;48.792;9.164;2023-10-13T07:05:12;38.73;;;11.00;;
151;SDS011;68;48.792;9.164;2023-10-13T07:07:39;36.27;;;12.90;;
151;SDS011;68;48.792;9.164;2023-10-13T07:10:09;39.90;;;11.70;;
151;SDS011;68;48.792;9.164;2023-10-13T07:12:36;39.70;;;11.30;;
151;SDS011;68;48.792;9.164;2023-10-13T07:15:11;43.93;;;11.93;;
151;SDS011;68;48.792;9.164;2023-10-13T07:17:44;34.50;;;12.70;;
151;SDS011;68;48.792;9.164;2023-10-13T07:20:11;44.77;;;12.87;;
151;SDS011;68;48.792;9.164;2023-10-13T07:22:49;38.30;;;10.80;;
151;SDS011;68;48.792;9.164;2023-10-13T07:25:23;34.03;;;11.13;;
151;SDS011;68;48.792;9.164;2023-10-13T07:27:51;36.90;;;11.80;;
151;SDS011;68;48.792;9.164;2023-10-13T07:30:19;54.17;;;11.30;;
151;SDS011;68;48.792;9.164;2023-10-13T07:32:45;39.83;;;10.87;;
151;SDS011;68;48.792;9.164;2023-10-13T07:35:12;37.60;;;11.73;;
151;SDS011;68;48.792;9.164;2023-10-13T07:37:42;36.47;;;11.43;;
151;SDS011;68;48.792;9.164;2023-10-13T07:40:10;43.50;;;11.97;;
151;SDS011;68;48.792;9.164;2023-10-13T07:43:06;40.03;;;10.97;;
151;SDS011;68;48.792;9.164;2023-10-13T07:45:36;48.47;;;13.40;;
151;SDS011;68;48.792;9.164;2023-10-13T07:48:03;37.77;;;11.20;;
151;SDS011;68;48.792;9.164;2023-10-13T07:50:37;35.33;;;10.23;;
151;SDS011;68;48.792;9.164;2023-10-13T07:53:04;39.90;;;10.47;;
151;SDS011;68;48.792;9.164;2023-10-13T07:55:44;33.90;;;10.20;;
151;SDS011;68;48.792;9.164;2023-10-13T07:58:13;33.20;;;9.47;;
151;SDS011;68;48.792;9.164;2023-10-13T08:00:40;38.60;;;10.70;;
151;SDS011;68;48.792;9.164;2023-10-13T08:03:19;44.07;;;11.50;;
151;SDS011;68;48.792;9.164;2023-10-13T08:05:57;37.03;;;10.47;;
151;SDS011;68;48.792;9.164;2023-10-13T08:08:30;43.87;;;10.83;;
151;SDS011;68;48.792;9.164;2023-10-13T08:11:03;33.40;;;10.03;;
151;SDS011;68;48.792;9.164;2023-10-13T08:13:37;34.87;;;12.27;;
151;SDS011;68;48.792;9.164;2023-10-13T08:16:11;35.43;;;10.70;;
151;SDS011;68;48.792;9.164;2023-10-13T08:18:45;38.67;;;10.47;;
151;SDS011;68;48.792;9.164;2023-10-13T08:21:14;34.17;;;9.87;;
151;SDS011;68;48.792;9.164;2023-10-13T08:23:45;40.83;;;10.00;;
151;SDS011;68;48.792;9.164;2023-10-13T08:26:25;35.87;;;11.53;;
151;SDS011;68;48.792;9.164;2023-10-13T08:29:18;34.93;;;9.30;;
151;SDS011;68;48.792;9.164;2023-10-13T08:32:11;34.70;;;9.57;;
151;SDS011;68;48.792;9.164;2023-10-13T08:34:48;39.40;;;9.80;;
151;SDS011;68;48.792;9.164;2023-10-13T08:37:34;33.70;;;9.67;;
151;SDS011;68;48.792;9.164;2023-10-13T08:40:12;35.13;;;10.07;;
151;SDS011;68;48.792;9.164;2023-10-13T08:43:02;34.40;;;8.93;;
151;SDS011;68;48.792;9.164;2023-10-13T08:45:39;48.20;;;9.90;;
151;SDS011;68;48.792;9.164;2023-10-13T08:48:19;46.57;;;9.10;;
151;SDS011;68;48.792;9.164;2023-10-13T08:50:51;40.30;;;9.90;;
151;SDS011;68;48.792;9.164;2023-10-13T08:53:21;43.03;;;10.53;;
151;SDS011;68;48.792;9.164;2023-10-13T08:55:53;32.47;;;9.23;;
151;SDS011;68;48.792;9.164;2023-10-13T08:58:35;35.10;;;9.37;;
151;SDS011;68;48.792;9.164;2023-10-13T09:01:23;39.90;;;9.10;;
151;SDS011;68;48.792;9.164;2023-10-13T09:04:05;33.10;;;8.80;;
151;SDS011;68;48.792;9.164;2023-10-13T09:06:48;34.20;;;8.77;;
151;SDS011;68;48.792;9.164;2023-10-13T09:09:46;33.40;;;8.87;;
151;SDS011;68;48.792;9.164;2023-10-13T09:12:36;34.27;;;8.47;;
151;SDS011;68;48.792;9.164;2023-10-13T09:15:05;35.90;;;7.83;;
151;SDS011;68;48.792;9.164;2023-10-13T09:17:44;34.07;;;8.47;;
151;SDS011;68;48.792;9.164;2023-10-13T09:20:17;44.03;;;10.23;;
151;SDS011;68;48.792;9.164;2023-10-13T09:23:08;36.17;;;8.60;;
151;SDS011;68;48.792;9.164;2023-10-13T09:25:35;33.17;;;7.80;;
151;SDS011;68;48.792;9.164;2023-10-13T09:28:03;34.17;;;7.90;;
151;SDS011;68;48.792;9.164;2023-10-13T09:30:43;44.63;;;7.73;;
151;SDS011;68;48.792;9.164;2023-10-13T09:33:12;36.20;;;8.07;;
151;SDS011;68;48.792;9.164;2023-10-13T09:35:41;33.30;;;8.77;;
151;SDS011;68;48.792;9.164;2023-10-13T09:38:14;38.83;;;8.20;;
151;SDS011;68;48.792;9.164;2023-10-13T09:40:40;36.00;;;7.70;;
151;SDS011;68;48.792;9.164;2023-10-13T09:43:15;42.30;;;8.70;;
151;SDS011;68;48.792;9.164;2023-10-13T09:45:43;35.43;;;7.43;;
151;SDS011;68;48.792;9.164;2023-10-13T09:48:30;33.80;;;8.03;;
151;SDS011;68;48.792;9.164;2023-10-13T09:50:59;34.93;;;8.00;;
151;SDS011;68;48.792;9.164;2023-10-13T09:53:28;35.10;;;7.47;;
151;SDS011;68;48.792;9.164;2023-10-13T09:55:58;36.97;;;7.93;;
151;SDS011;68;48.792;9.164;2023-10-13T09:58:38;35.90;;;7.90;;
151;SDS011;68;48.792;9.164;2023-10-13T10:01:12;33.90;;;7.43;;
151;SDS011;68;48.792;9.164;2023-10-13T10:03:48;38.87;;;8.07;;
151;SDS011;68;48.792;9.164;2023-10-13T10:06:21;31.60;;;7.67;;
151;SDS011;68;48.792;9.164;2023-10-13T10:09:03;37.30;;;7.60;;
151;SDS011;68;48.792;9.164;2023-10-13T10:11:52;35.73;;;7.60;;
151;SDS011;68;48.792;9.164;2023-10-13T10:17:38;34.23;;;7.60;;
151;SDS011;68;48.792;9.164;2023-10-13T10:20:08;35.03;;;7.57;;
151;SDS011;68;48.792;9.164;2023-10-13T10:22:54;45.37;;;8.27;;
151;SDS011;68;48.792;9.164;2023-10-13T10:25:28;33.30;;;7.40;;
151;SDS011;68;48.792;9.164;2023-10-13T10:28:00;38.87;;;8.47;;
151;SDS011;68;48.792;9.164;2023-10-13T10:30:30;46.57;;;8.37;;
151;SDS011;68;48.792;9.164;2023-10-13T10:32:59;47.77;;;8.47;;
151;SDS011;68;48.792;9.164;2023-10-13T10:35:33;35.17;;;8.13;;
151;SDS011;68;48.792;9.164;2023-10-13T10:38:07;33.30;;;7.77;;
151;SDS011;68;48.792;9.164;2023-10-13T10:40:50;36.33;;;7.27;;
151;SDS011;68;48.792;9.164;2023-10-13T10:43:22;35.50;;;7.90;;
151;SDS011;68;48.792;9.164;2023-10-13T10:45:51;33.90;;;7.67;;
151;SDS011;68;48.792;9.164;2023-10-13T10:48:24;38.00;;;7.73;;
151;SDS011;68;48.792;9.164;2023-10-13T10:50:58;44.43;;;7.50;;
151;SDS011;68;48.792;9.164;2023-10-13T10:53:33;36.50;;;7.77;;
151;SDS011;68;48.792;9.164;2023-10-13T10:56:08;33.80;;;7.13;;
151;SDS011;68;48.792;9.164;2023-10-13T10:58:44;36.73;;;8.27;;
151;SDS011;68;48.792;9.164;2023-10-13T11:01:11;35.73;;;7.50;;
151;SDS011;68;48.792;9.164;2023-10-13T11:03:52;39.87;;;8.50;;
151;SDS011;68;48.792;9.164;2023-10-13T11:06:23;36.53;;;7.13;;
151;SDS011;68;48.792;9.164;2023-10-13T11:09:00;40.93;;;7.50;;
151;SDS011;68;48.792;9.164;2023-10-13T11:11:29;39.23;;;8.10;;
151;SDS011;68;48.792;9.164;2023-10-13T11:14:00;41.00;;;7.23;;
151;SDS011;68;48.792;9.164;2023-10-13T11:16:44;34.43;;;7.67;;
151;SDS011;68;48.792;9.164;2023-10-13T11:19:15;34.30;;;7.00;;
151;SDS011;68;48.792;9.164;2023-10-13T11:21:46;38.83;;;7.07;;
151;SDS011;68;48.792;9.164;2023-10-13T11:24:13;44.37;;;7.23;;
151;SDS011;68;48.792;9.164;2023-10-13T11:26:42;41.37;;;7.93;;
151;SDS011;68;48.792;9.164;2023-10-13T11:29:15;40.93;;;7.03;;
151;SDS011;68;48.792;9.164;2023-10-13T11:31:44;32.83;;;7.20;;
151;SDS011;68;48.792;9.164;2023-10-13T11:34:12;34.93;;;7.10;;
151;SDS011;68;48.792;9.164;2023-10-13T11:36:42;46.50;;;7.43;;
151;SDS011;68;48.792;9.164;2023-10-13T11:39:10;29.70;;;6.50;;
151;SDS011;68;48.792;9.164;2023-10-13T11:41:42;29.80;;;6.43;;
151;SDS011;68;48.792;9.164;2023-10-13T11:44:16;37.97;;;7.40;;
151;SDS011;68;48.792;9.164;2023-10-13T11:46:55;35.00;;;7.40;;
151;SDS011;68;48.792;9.164;2023-10-13T11:49:23;35.87;;;6.40;;
151;SDS011;68;48.792;9.164;2023-10-13T11:52:02;31.10;;;6.47;;
151;SDS011;68;48.792;9.164;2023-10-13T11:54:42;31.17;;;6.10;;
151;SDS011;68;48.792;9.164;2023-10-13T11:57:09;36.73;;;7.20;;
151;SDS011;68;48.792;9.164;2023-10-13T11:59:36;41.93;;;7.80;;
151;SDS011;68;48.792;9.164;2023-10-13T12:02:10;34.00;;;6.90;;
151;SDS011;68;48.792;9.164;2023-10-13T12:04:55;35.00;;;6.37;;
151;SDS011;68;48.792;9.164;2023-10-13T12:07:24;31.63;;;6.43;;
151;SDS011;68;48.792;9.164;2023-10-13T12:10:11;36.47;;;7.47;;
151;SDS011;68;48.792;9.164;2023-10-13T12:12:57;42.53;;;8.37;;
151;SDS011;68;48.792;9.164;2023-10-13T12:15:30;33.83;;;7.00;;
151;SDS011;68;48.792;9.164;2023-10-13T12:18:02;51.00;;;6.77;;
151;SDS011;68;48.792;9.164;2023-10-13T12:20:30;33.23;;;5.90;;
151;SDS011;68;48.792;9.164;2023-10-13T12:23:00;32.47;;;7.07;;
151;SDS011;68;48.792;9.164;2023-10-13T12:25:37;31.30;;;6.60;;
151;SDS011;68;48.792;9.164;2023-10-13T12:28:20;35.77;;;7.60;;
151;SDS011;68;48.792;9.164;2023-10-13T12:30:48;31.70;;;6.27;;
151;SDS011;68;48.792;9.164;2023-10-13T12:33:17;37.73;;;6.80;;
151;SDS011;68;48.792;9.164;2023-10-13T12:35:50;34.03;;;8.50;;
151;SDS011;68;48.792;9.164;2023-10-13T12:38:28;34.83;;;6.73;;
151;SDS011;68;48.792;9.164;2023-10-13T12:41:17;34.53;;;7.33;;
151;SDS011;68;48.792;9.164;2023-10-13T12:44:03;35.27;;;6.40;;
151;SDS011;68;48.792;9.164;2023-10-13T12:46:48;33.37;;;7.13;;
151;SDS011;68;48.792;9.164;2023-10-13T12:49:32;45.10;;;7.60;;
151;SDS011;68;48.792;9.164;2023-10-13T12:52:17;45.73;;;7.43;;
151;SDS011;68;48.792;9.164;2023-10-13T12:54:44;39.63;;;6.83;;
151;SDS011;68;48.792;9.164;2023-10-13T12:57:14;35.47;;;6.80;;
151;SDS011;68;48.792;9.164;2023-10-13T12:59:41;33.40;;;6.60;;
151;SDS011;68;48.792;9.164;2023-10-13T13:02:07;37.23;;;6.63;;
151;SDS011;68;48.792;9.164;2023-10-13T13:04:40;34.00;;;6.50;;
151;SDS011;68;48.792;9.164;2023-10-13T13:07:09;42.37;;;8.47;;
151;SDS011;68;48.792;9.164;2023-10-13T13:09:38;33.17;;;6.70;;
151;SDS011;68;48.792;9.164;2023-10-13T13:12:05;38.50;;;6.60;;
151;SDS011;68;48.792;9.164;2023-10-13T13:14:33;33.60;;;7.00;;
151;SDS011;68;48.792;9.164;2023-10-13T13:17:00;32.87;;;6.23;;
151;SDS011;68;48.792;9.164;2023-10-13T13:19:30;39.80;;;7.70;;
151;SDS011;68;48.792;9.164;2023-10-13T13:22:01;35.47;;;6.80;;
151;SDS011;68;48.792;9.164;2023-10-13T13:24:28;36.47;;;6.90;;
151;SDS011;68;48.792;9.164;2023-10-13T13:26:56;32.33;;;7.30;;
151;SDS011;68;48.792;9.164;2023-10-13T13:29:27;36.33;;;7.33;;
151;SDS011;68;48.792;9.164;2023-10-13T13:31:56;37.97;;;6.50;;
151;SDS011;68;48.792;9.164;2023-10-13T13:34:25;36.43;;;7.27;;
151;SDS011;68;48.792;9.164;2023-10-13T13:36:52;41.23;;;8.10;;
151;SDS011;68;48.792;9.164;2023-10-13T13:39:18;38.87;;;7.50;;
151;SDS011;68;48.792;9.164;2023-10-13T13:41:54;34.23;;;7.23;;
151;SDS011;68;48.792;9.164;2023-10-13T13:44:22;38.20;;;7.03;;
151;SDS011;68;48.792;9.164;2023-10-13T13:46:54;29.37;;;6.40;;
151;SDS011;68;48.792;9.164;2023-10-13T13:49:23;35.57;;;8.30;;
151;SDS011;68;48.792;9.164;2023-10-13T13:52:04;32.17;;;6.97;;
151;SDS011;68;48.792;9.164;2023-10-13T13:54:31;30.90;;;7.07;;
151;SDS011;68;48.792;9.164;2023-10-13T13:56:58;29.80;;;6.50;;
151;SDS011;68;48.792;9.164;2023-10-13T13:59:25;30.20;;;6.13;;
151;SDS011;68;48.792;9.164;2023-10-13T14:02:00;47.23;;;7.17;;
151;SDS011;68;48.792;9.164;2023-10-13T14:04:31;38.03;;;7.10;;
151;SDS011;68;48.792;9.164;2023-10-13T14:06:59;34.10;;;7.60;;
151;SDS011;68;48.792;9.164;2023-10-13T14:09:31;33.77;;;7.30;;
151;SDS011;68;48.792;9.164;2023-10-13T14:12:01;40.47;;;8.00;;
151;SDS011;68;48.792;9.164;2023-10-13T14:14:54;42.27;;;7.10;;
151;SDS011;68;48.792;9.164;2023-10-13T14:17:23;38.10;;;7.67;;
151;SDS011;68;48.792;9.164;2023-10-13T14:19:54;34.40;;;7.03;;
151;SDS011;68;48.792;9.164;2023-10-13T14:22:22;33.80;;;6.87;;
151;SDS011;68;48.792;9.164;2023-10-13T14:24:50;33.17;;;6.90;;
151;SDS011;68;48.792;9.164;2023-10-13T14:27:20;38.63;;;8.07;;
151;SDS011;68;48.792;9.164;2023-10-13T14:29:48;33.37;;;7.40;;
151;SDS011;68;48.792;9.164;2023-10-13T14:32:18;35.57;;;7.27;;
151;SDS011;68;48.792;9.164;2023-10-13T14:34:50;33.70;;;7.70;;
151;SDS011;68;48.792;9.164;2023-10-13T14:37:21;31.57;;;7.00;;
151;SDS011;68;48.792;9.164;2023-10-13T14:39:53;32.37;;;7.87;;
151;SDS011;68;48.792;9.164;2023-10-13T14:42:22;35.47;;;7.03;;
151;SDS011;68;48.792;9.164;2023-10-13T14:44:49;35.90;;;9.00;;
151;SDS011;68;48.792;9.164;2023-10-13T14:47:20;34.57;;;7.47;;
151;SDS011;68;48.792;9.164;2023-10-13T14:49:51;30.60;;;7.00;;
151;SDS011;68;48.792;9.164;2023-10-13T14:52:20;33.13;;;6.77;;
151;SDS011;68;48.792;9.164;2023-10-13T14:54:46;34.83;;;7.20;;
151;SDS011;68;48.792;9.164;2023-10-13T14:57:20;32.30;;;7.37;;
151;SDS011;68;48.792;9.164;2023-10-13T14:59:49;36.97;;;7.80;;
151;SDS011;68;48.792;9.164;2023-10-13T15:02:17;33.17;;;7.40;;
151;SDS011;68;48.792;9.164;2023-10-13T15:04:43;33.87;;;7.37;;
151;SDS011;68;48.792;9.164;2023-10-13T15:07:14;31.70;;;7.63;;
151;SDS011;68;48.792;9.164;2023-10-13T15:09:42;35.87;;;6.73;;
151;SDS011;68;48.792;9.164;2023-10-13T15:12:09;32.23;;;7.50;;
151;SDS011;68;48.792;9.164;2023-10-13T15:14:36;30.30;;;6.90;;
151;SDS011;68;48.792;9.164;2023-10-13T15:17:04;35.40;;;7.77;;
151;SDS011;68;48.792;9.164;2023-10-13T15:19:31;38.67;;;7.10;;
151;SDS011;68;48.792;9.164;2023-10-13T15:22:01;32.40;;;7.80;;
151;SDS011;68;48.792;9.164;2023-10-13T15:24:32;35.20;;;7.53;;
151;SDS011;68;48.792;9.164;2023-10-13T15:27:06;36.43;;;7.50;;
151;SDS011;68;48.792;9.164;2023-10-13T15:29:33;32.40;;;7.10;;
151;SDS011;68;48.792;9.164;2023-10-13T15:32:01;34.67;;;7.33;;
151;SDS011;68;48.792;9.164;2023-10-13T15:34:50;35.60;;;7.80;;
151;SDS011;68;48.792;9.164;2023-10-13T15:37:17;53.83;;;6.77;;
151;SDS011;68;48.792;9.164;2023-10-13T15:39:46;34.37;;;7.20;;
151;SDS011;68;48.792;9.164;2023-10-13T15:42:13;34.70;;;7.60;;
151;SDS011;68;48.792;9.164;2023-10-13T15:44:40;31.27;;;7.07;;
151;SDS011;68;48.792;9.164;2023-10-13T15:47:08;37.53;;;7.40;;
151;SDS011;68;48.792;9.164;2023-10-13T15:49:37;29.43;;;6.70;;
151;SDS011;68;48.792;9.164;2023-10-13T15:52:06;32.97;;;6.70;;
151;SDS011;68;48.792;9.164;2023-10-13T15:54:34;36.93;;;7.60;;
151;SDS011;68;48.792;9.164;2023-10-13T15:57:02;35.20;;;7.07;;
151;SDS011;68;48.792;9.164;2023-10-13T15:59:31;32.83;;;7.70;;
151;SDS011;68;48.792;9.164;2023-10-13T16:01:59;31.70;;;7.67;;
151;SDS011;68;48.792;9.164;2023-10-13T16:04:26;33.53;;;7.50;;
151;SDS011;68;48.792;9.164;2023-10-13T16:06:52;29.87;;;6.93;;
151;SDS011;68;48.792;9.164;2023-10-13T16:09:19;34.07;;;7.33;;
151;SDS011;68;48.792;9.164;2023-10-13T16:11:49;36.93;;;8.00;;
151;SDS011;68;48.792;9.164;2023-10-13T16:14:18;30.17;;;7.93;;
151;SDS011;68;48.792;9.164;2023-10-13T16:16:45;33.50;;;7.80;;
151;SDS011;68;48.792;9.164;2023-10-13T16:19:13;44.50;;;7.53;;
151;SDS011;68;48.792;9.164;2023-10-13T16:21:42;36.07;;;8.13;;